createdAt,value
2022-12-03T00:00:40.605Z,101068.44
2022-12-03T00:03:10.980Z,101074.75
2022-12-03T00:05:48.211Z,101079.97
2022-12-03T00:08:18.854Z,101082.50
2022-12-03T00:10:48.561Z,101098.63
2022-12-03T00:13:18.244Z,101108.38
2022-12-03T00:15:48.180Z,101106.78
2022-12-03T00:18:18.222Z,101110.25
2022-12-03T00:20:47.797Z,101115.94
2022-12-03T00:23:17.581Z,101118.78
2022-12-03T00:25:47.526Z,101118.41
2022-12-03T00:28:18.450Z,101119.44
2022-12-03T00:30:48.340Z,101131.28
2022-12-03T00:33:17.857Z,101130.00
2022-12-03T00:35:47.549Z,101134.09
2022-12-03T00:38:17.212Z,101134.25
2022-12-03T00:40:47.043Z,101145.25
2022-12-03T00:43:16.600Z,101151.56
2022-12-03T00:45:46.402Z,101151.16
2022-12-03T00:48:16.007Z,101150.25
2022-12-03T00:50:45.776Z,101152.94
2022-12-03T00:53:15.495Z,101152.22
2022-12-03T00:55:45.232Z,101152.09
2022-12-03T00:58:14.915Z,101151.28
2022-12-03T01:00:45.116Z,101160.72
2022-12-03T01:03:15.004Z,101152.28
2022-12-03T01:05:44.678Z,101161.47
2022-12-03T01:08:14.670Z,101166.78
2022-12-03T01:10:44.366Z,101172.28
2022-12-03T01:13:13.928Z,101182.63
2022-12-03T01:15:44.050Z,101176.28
2022-12-03T01:18:13.660Z,101185.50
2022-12-03T01:20:43.606Z,101190.34
2022-12-03T01:23:15.621Z,101184.84
2022-12-03T01:25:45.581Z,101180.44
2022-12-03T01:28:15.198Z,101186.25
2022-12-03T01:31:03.087Z,101189.41
2022-12-03T01:33:32.906Z,101185.44
2022-12-03T01:36:02.524Z,101187.50
2022-12-03T01:38:33.438Z,101183.78
2022-12-03T01:41:05.903Z,101187.66
2022-12-03T01:43:39.145Z,101188.72
2022-12-03T01:46:09.148Z,101196.38
2022-12-03T01:48:40.466Z,101211.19
2022-12-03T01:51:10.470Z,101208.94
2022-12-03T01:53:40.282Z,101210.00
2022-12-03T01:56:12.436Z,101218.34
2022-12-03T01:58:42.639Z,101219.06
2022-12-03T02:01:20.281Z,101217.97
2022-12-03T02:03:50.162Z,101218.75
2022-12-03T02:06:21.636Z,101228.53
2022-12-03T02:08:51.558Z,101218.84
2022-12-03T02:11:30.027Z,101218.69
2022-12-03T02:14:04.564Z,101222.94
2022-12-03T02:16:37.067Z,101220.19
2022-12-03T02:19:10.968Z,101227.34
2022-12-03T02:21:44.438Z,101226.44
2022-12-03T02:24:31.538Z,101225.53
2022-12-03T02:27:02.399Z,101228.47
2022-12-03T02:29:33.966Z,101225.59
2022-12-03T02:32:03.841Z,101228.06
2022-12-03T02:34:44.301Z,101229.47
2022-12-03T02:37:17.103Z,101226.03
2022-12-03T02:39:49.766Z,101225.13
2022-12-03T02:42:38.635Z,101223.72
2022-12-03T02:45:14.765Z,101229.00
2022-12-03T02:47:55.133Z,101219.56
2022-12-03T02:50:29.212Z,101224.22
2022-12-03T02:53:01.517Z,101211.75
2022-12-03T02:55:36.745Z,101205.22
2022-12-03T02:58:07.404Z,101211.16
2022-12-03T03:00:38.250Z,101207.78
2022-12-03T03:03:10.641Z,101197.91
2022-12-03T03:05:42.677Z,101194.41
2022-12-03T03:08:13.781Z,101193.91
2022-12-03T03:10:45.229Z,101187.03
2022-12-03T03:13:16.436Z,101186.84
2022-12-03T03:15:46.411Z,101186.22
2022-12-03T03:18:16.774Z,101188.16
2022-12-03T03:20:47.049Z,101182.13
2022-12-03T03:23:19.792Z,101182.03
2022-12-03T03:25:52.238Z,101177.31
2022-12-03T03:28:24.562Z,101175.59
2022-12-03T03:30:54.434Z,101165.91
2022-12-03T03:33:24.196Z,101160.06
2022-12-03T03:35:54.044Z,101157.84
2022-12-03T03:38:24.578Z,101160.50
2022-12-03T03:40:54.634Z,101154.66
2022-12-03T03:43:25.111Z,101148.03
2022-12-03T03:45:56.188Z,101152.75
2022-12-03T03:48:26.088Z,101139.47
2022-12-03T03:50:58.012Z,101137.53
2022-12-03T03:53:27.770Z,101136.41
2022-12-03T03:55:57.423Z,101134.97
2022-12-03T03:58:27.179Z,101139.88
2022-12-03T04:00:56.759Z,101134.88
2022-12-03T04:03:44.735Z,101125.81
2022-12-03T04:09:00.041Z,101118.03
2022-12-03T04:11:48.169Z,101119.34
2022-12-03T04:14:17.932Z,101118.75
2022-12-03T04:16:47.602Z,101109.66
2022-12-03T04:19:17.214Z,101100.25
2022-12-03T04:22:05.508Z,101103.84
2022-12-03T04:24:36.475Z,101103.53
2022-12-03T04:27:24.510Z,101095.97
2022-12-03T04:29:54.251Z,101089.50
2022-12-03T04:32:43.075Z,101086.75
2022-12-03T04:38:05.059Z,101077.38
2022-12-03T04:40:53.659Z,101072.88
2022-12-03T04:43:23.783Z,101062.31
2022-12-03T04:45:54.084Z,101057.94
2022-12-03T04:48:24.117Z,101056.06
2022-12-03T04:50:53.969Z,101046.47
2022-12-03T04:53:23.585Z,101040.31
2022-12-03T04:55:53.336Z,101041.66
2022-12-03T04:58:23.010Z,101034.38
2022-12-03T05:00:52.901Z,101033.88
2022-12-03T05:03:22.587Z,101036.31
2022-12-03T05:05:52.276Z,101030.81
2022-12-03T05:08:21.993Z,101026.09
2022-12-03T05:10:51.596Z,101023.31
2022-12-03T05:13:21.320Z,101015.56
2022-12-03T05:15:50.865Z,101015.88
2022-12-03T05:18:20.581Z,101011.66
2022-12-03T05:20:53.573Z,101009.91
2022-12-03T05:23:23.873Z,100997.88
2022-12-03T05:25:53.553Z,100999.06
2022-12-03T05:28:25.384Z,100987.34
2022-12-03T05:30:55.863Z,100992.59
2022-12-03T05:33:25.639Z,100979.75
2022-12-03T05:35:56.500Z,100970.88
2022-12-03T05:38:26.316Z,100965.88
2022-12-03T05:40:56.926Z,100964.78
2022-12-03T05:43:26.915Z,100954.31
2022-12-03T05:45:56.925Z,100961.38
2022-12-03T05:48:26.581Z,100939.31
2022-12-03T05:50:56.128Z,100930.34
2022-12-03T05:53:26.163Z,100930.34
2022-12-03T05:55:55.791Z,100936.59
2022-12-03T05:58:25.738Z,100923.41
2022-12-03T06:00:55.500Z,100917.06
2022-12-03T06:03:25.413Z,100918.19
2022-12-03T06:05:55.088Z,100908.94
2022-12-03T06:08:24.745Z,100903.88
2022-12-03T06:10:54.659Z,100907.66
2022-12-03T06:13:24.276Z,100901.94
2022-12-03T06:15:54.165Z,100888.03
2022-12-03T06:18:23.976Z,100899.22
2022-12-03T06:20:54.949Z,100883.78
2022-12-03T06:23:25.444Z,100884.44
2022-12-03T06:25:55.277Z,100882.97
2022-12-03T06:28:24.986Z,100882.50
2022-12-03T06:30:54.723Z,100873.38
2022-12-03T06:33:24.348Z,100868.84
2022-12-03T06:35:54.329Z,100862.84
2022-12-03T06:38:24.658Z,100850.00
2022-12-03T06:40:54.433Z,100858.81
2022-12-03T06:43:42.658Z,100858.13
2022-12-03T06:46:13.391Z,100854.06
2022-12-03T06:48:43.274Z,100850.03
2022-12-03T06:51:12.935Z,100851.16
2022-12-03T06:53:44.539Z,100844.34
2022-12-03T06:56:16.122Z,100838.81
2022-12-03T06:58:48.643Z,100832.63
2022-12-03T07:01:19.291Z,100831.50
2022-12-03T07:03:49.482Z,100825.81
2022-12-03T07:06:20.189Z,100826.16
2022-12-03T07:11:36.382Z,100818.69
2022-12-03T07:14:08.661Z,100811.88
2022-12-03T07:16:39.058Z,100816.09
2022-12-03T07:19:09.501Z,100813.03
2022-12-03T07:21:39.863Z,100815.44
2022-12-03T07:24:09.852Z,100810.72
2022-12-03T07:26:39.398Z,100802.63
2022-12-03T07:29:09.488Z,100813.03
2022-12-03T07:31:39.312Z,100803.78
2022-12-03T07:34:09.860Z,100800.66
2022-12-03T07:36:40.213Z,100799.88
2022-12-03T07:39:11.159Z,100789.63
2022-12-03T07:41:41.075Z,100783.47
2022-12-03T07:44:14.213Z,100783.94
2022-12-03T07:49:30.674Z,100781.66
2022-12-03T07:52:18.689Z,100783.44
2022-12-03T07:54:48.434Z,100776.16
2022-12-03T07:57:18.059Z,100769.63
2022-12-03T07:59:48.123Z,100766.53
2022-12-03T08:02:21.262Z,100762.50
2022-12-03T08:05:10.748Z,100760.88
2022-12-03T08:07:40.593Z,100761.22
2022-12-03T08:10:10.462Z,100757.47
2022-12-03T08:12:44.871Z,100758.25
2022-12-03T08:15:19.489Z,100762.34
2022-12-03T08:17:50.579Z,100754.22
2022-12-03T08:20:24.881Z,100752.91
2022-12-03T08:22:55.403Z,100761.84
2022-12-03T08:25:29.691Z,100752.41
2022-12-03T08:28:06.399Z,100760.38
2022-12-03T08:30:36.328Z,100763.13
2022-12-03T08:33:15.929Z,100756.81
2022-12-03T08:35:49.051Z,100756.31
2022-12-03T08:38:25.234Z,100759.88
2022-12-03T08:40:58.584Z,100754.69
2022-12-03T08:43:30.181Z,100757.59
2022-12-03T08:46:00.766Z,100750.44
2022-12-03T08:48:42.821Z,100754.69
2022-12-03T08:51:34.756Z,100747.06
2022-12-03T08:54:13.864Z,100751.44
2022-12-03T08:56:43.893Z,100749.31
2022-12-03T08:59:33.228Z,100758.09
2022-12-03T09:02:05.037Z,100755.50
2022-12-03T09:04:47.186Z,100766.41
2022-12-03T09:07:19.684Z,100762.16
2022-12-03T09:12:42.709Z,100775.19
2022-12-03T09:15:13.461Z,100774.84
2022-12-03T09:17:44.200Z,100776.47
2022-12-03T09:20:17.089Z,100776.31
2022-12-03T09:22:47.933Z,100781.66
2022-12-03T09:25:18.732Z,100784.28
2022-12-03T09:27:49.070Z,100779.41
2022-12-03T09:30:19.540Z,100784.94
2022-12-03T09:32:49.770Z,100783.13
2022-12-03T09:35:20.182Z,100786.22
2022-12-03T09:37:50.289Z,100791.41
2022-12-03T09:40:20.603Z,100787.69
2022-12-03T09:42:51.071Z,100793.34
2022-12-03T09:45:22.296Z,100803.28
2022-12-03T09:47:53.360Z,100795.63
2022-12-03T09:50:27.231Z,100793.00
2022-12-03T09:53:01.233Z,100797.25
2022-12-03T09:55:32.403Z,100797.25
2022-12-03T09:58:03.016Z,100799.69
2022-12-03T10:00:33.441Z,100803.72
2022-12-03T10:03:07.237Z,100800.47
2022-12-03T10:05:37.762Z,100810.72
2022-12-03T10:08:17.729Z,100822.56
2022-12-03T10:10:48.576Z,100829.06
2022-12-03T10:13:33.233Z,100828.91
2022-12-03T10:16:05.294Z,100833.59
2022-12-03T10:18:41.608Z,100835.56
2022-12-03T10:21:21.821Z,100839.75
2022-12-03T10:23:55.443Z,100841.06
2022-12-03T10:26:42.698Z,100841.06
2022-12-03T10:29:18.058Z,100846.56
2022-12-03T10:31:49.972Z,100844.13
2022-12-03T10:34:34.713Z,100841.06
2022-12-03T10:37:24.960Z,100844.94
2022-12-03T10:40:00.016Z,100841.94
2022-12-03T10:42:36.030Z,100839.03
2022-12-03T10:45:17.650Z,100845.38
2022-12-03T10:48:22.625Z,100851.88
2022-12-03T10:51:07.250Z,100850.56
2022-12-03T10:53:40.853Z,100854.78
2022-12-03T10:56:17.474Z,100859.47
2022-12-03T10:58:47.563Z,100861.75
2022-12-03T11:01:28.414Z,100860.09
2022-12-03T11:04:06.460Z,100868.38
2022-12-03T11:06:36.692Z,100864.31
2022-12-03T11:09:09.330Z,100867.91
2022-12-03T11:11:39.636Z,100876.03
2022-12-03T11:14:15.659Z,100875.53
2022-12-03T11:16:50.317Z,100891.63
2022-12-03T11:19:40.214Z,100891.28
2022-12-03T11:22:13.046Z,100892.94
2022-12-03T11:24:43.371Z,100896.16
2022-12-03T11:27:13.882Z,100898.56
2022-12-03T11:29:54.009Z,100909.50
2022-12-03T11:35:27.829Z,100914.34
2022-12-03T11:37:58.332Z,100917.72
2022-12-03T11:40:34.772Z,100912.03
2022-12-03T11:44:00.379Z,100918.72
2022-12-03T11:46:34.920Z,100928.44
2022-12-03T11:49:17.289Z,100928.31
2022-12-03T11:51:47.651Z,100926.34
2022-12-03T11:54:20.189Z,100920.03
2022-12-03T11:56:52.240Z,100932.53
2022-12-03T11:59:22.105Z,100927.00
2022-12-03T12:01:52.058Z,100935.47
2022-12-03T12:04:45.163Z,100942.44
2022-12-03T12:07:15.336Z,100948.88
2022-12-03T12:09:57.585Z,100949.38
2022-12-03T12:12:34.095Z,100956.69
2022-12-03T12:15:42.209Z,100962.69
2022-12-03T12:18:41.479Z,100962.69
2022-12-03T12:21:59.561Z,100962.69
2022-12-03T12:24:42.841Z,100964.13
2022-12-03T12:27:15.359Z,100965.44
2022-12-03T12:30:07.071Z,100976.13
2022-12-03T12:32:47.067Z,100980.69
2022-12-03T12:35:31.735Z,100988.97
2022-12-03T12:41:04.875Z,101001.47
2022-12-03T12:43:37.540Z,101001.13
2022-12-03T12:46:46.636Z,101001.47
2022-12-03T12:49:23.803Z,100999.50
2022-12-03T12:51:54.093Z,101002.88
2022-12-03T12:54:24.290Z,101006.97
2022-12-03T12:57:19.155Z,101007.59
2022-12-03T12:59:49.608Z,101015.56
2022-12-03T13:02:28.615Z,101009.06
2022-12-03T13:05:18.002Z,101008.91
2022-12-03T13:07:49.039Z,101014.56
2022-12-03T13:10:36.295Z,101014.75
2022-12-03T13:13:44.105Z,101022.72
2022-12-03T13:16:35.312Z,101027.09
2022-12-03T13:19:14.508Z,101028.13
2022-12-03T13:21:48.278Z,101026.72
2022-12-03T13:27:50.539Z,101035.81
2022-12-03T13:30:23.135Z,101034.25
2022-12-03T13:32:53.347Z,101040.72
2022-12-03T13:35:33.627Z,101043.97
2022-12-03T13:38:04.276Z,101042.16
2022-12-03T13:40:38.559Z,101039.09
2022-12-03T13:43:21.318Z,101047.34
2022-12-03T13:45:53.673Z,101048.50
2022-12-03T13:48:36.975Z,101039.41
2022-12-03T13:51:29.498Z,101043.41
2022-12-03T13:54:02.459Z,101050.66
2022-12-03T13:56:34.879Z,101048.22
2022-12-03T13:59:06.533Z,101047.72
2022-12-03T14:01:36.816Z,101051.41
2022-12-03T14:04:07.407Z,101055.31
2022-12-03T14:06:37.738Z,101064.09
2022-12-03T14:12:13.819Z,101067.03
2022-12-03T14:14:44.128Z,101065.72
2022-12-03T14:17:14.531Z,101069.97
2022-12-03T14:19:45.566Z,101066.09
2022-12-03T14:22:34.059Z,101073.56
2022-12-03T14:25:04.254Z,101070.19
2022-12-03T14:27:34.494Z,101078.16
2022-12-03T14:30:05.771Z,101085.81
2022-12-03T14:32:36.201Z,101086.59
2022-12-03T14:35:09.845Z,101087.31
2022-12-03T14:37:40.570Z,101090.75
2022-12-03T14:40:14.196Z,101093.84
2022-12-03T14:42:46.806Z,101091.59
2022-12-03T14:45:17.152Z,101104.88
2022-12-03T14:47:47.489Z,101115.31
2022-12-03T14:50:17.752Z,101112.22
2022-12-03T14:52:47.946Z,101115.81
2022-12-03T14:55:21.053Z,101116.94
2022-12-03T14:57:51.275Z,101117.22
2022-12-03T15:00:22.064Z,101119.50
2022-12-03T15:02:53.047Z,101122.28
2022-12-03T15:05:41.665Z,101120.31
2022-12-03T15:08:14.772Z,101114.47
2022-12-03T15:10:45.044Z,101128.91
2022-12-03T15:13:15.587Z,101123.88
2022-12-03T15:15:45.781Z,101119.81
2022-12-03T15:18:16.090Z,101126.97
2022-12-03T15:20:46.369Z,101125.84
2022-12-03T15:23:16.611Z,101125.31
2022-12-03T15:25:46.978Z,101132.16
2022-12-03T15:28:17.185Z,101124.53
2022-12-03T15:30:47.747Z,101131.69
2022-12-03T15:33:18.263Z,101125.84
2022-12-03T15:35:49.436Z,101133.31
2022-12-03T15:38:19.730Z,101134.44
2022-12-03T15:40:50.109Z,101132.66
2022-12-03T15:43:20.514Z,101135.75
2022-12-03T15:45:51.073Z,101138.00
2022-12-03T15:48:21.404Z,101138.41
2022-12-03T15:50:51.719Z,101136.78
2022-12-03T15:53:21.793Z,101138.84
2022-12-03T15:55:51.940Z,101136.78
2022-12-03T15:59:23.580Z,101130.75
2022-12-03T16:01:53.938Z,101128.41
2022-12-03T16:04:24.267Z,101136.38
2022-12-03T16:06:54.568Z,101143.34
2022-12-03T16:09:42.989Z,101142.50
2022-12-03T16:12:13.330Z,101145.25
2022-12-03T16:14:43.572Z,101143.13
2022-12-03T16:17:13.949Z,101141.09
2022-12-03T16:19:44.415Z,101141.97
2022-12-03T16:22:15.400Z,101146.19
2022-12-03T16:24:45.793Z,101151.72
2022-12-03T16:27:15.991Z,101149.28
2022-12-03T16:29:46.054Z,101145.16
2022-12-03T16:32:16.483Z,101145.16
2022-12-03T16:34:46.728Z,101146.28
2022-12-03T16:37:17.051Z,101137.72
2022-12-03T16:39:50.683Z,101138.84
2022-12-03T16:42:20.972Z,101128.13
2022-12-03T16:45:17.005Z,101134.13
2022-12-03T16:47:47.278Z,101125.06
2022-12-03T16:50:24.481Z,101123.94
2022-12-03T16:52:59.508Z,101125.38
2022-12-03T16:55:29.821Z,101120.66
2022-12-03T16:58:00.248Z,101119.03
2022-12-03T17:00:31.168Z,101116.59
2022-12-03T17:03:01.552Z,101118.84
2022-12-03T17:05:31.985Z,101110.25
2022-12-03T17:08:02.151Z,101108.59
2022-12-03T17:10:32.778Z,101113.31
2022-12-03T17:13:10.824Z,101109.72
2022-12-03T17:15:42.392Z,101110.56
2022-12-03T17:18:30.552Z,101103.91
2022-12-03T17:21:00.822Z,101097.56
2022-12-03T17:23:30.832Z,101095.94
2022-12-03T17:26:01.043Z,101096.44
2022-12-03T17:28:31.476Z,101090.41
2022-12-03T17:31:01.778Z,101089.00
2022-12-03T17:33:32.037Z,101090.75
2022-12-03T17:36:03.604Z,101090.41
2022-12-03T17:38:39.065Z,101082.97
2022-12-03T17:41:10.156Z,101077.75
2022-12-03T17:43:40.364Z,101064.59
2022-12-03T17:46:10.790Z,101063.47
2022-12-03T17:48:42.819Z,101055.50
2022-12-03T17:51:13.160Z,101044.78
2022-12-03T17:53:43.302Z,101045.91
2022-12-03T17:56:13.284Z,101036.50
2022-12-03T17:58:43.294Z,101037.63
2022-12-03T18:01:13.694Z,101034.88
2022-12-03T18:03:43.896Z,101039.75
2022-12-03T18:06:14.121Z,101034.03
2022-12-03T18:08:44.109Z,101033.22
2022-12-03T18:11:14.285Z,101030.47
2022-12-03T18:13:44.502Z,101028.50
2022-12-03T18:16:14.769Z,101026.09
2022-12-03T18:18:45.045Z,101026.59
2022-12-03T18:21:15.851Z,101024.97
2022-12-03T18:23:45.991Z,101024.97
2022-12-03T18:26:16.252Z,101018.94
2022-12-03T18:28:46.559Z,101015.03
2022-12-03T18:31:19.048Z,101025.56
2022-12-03T18:33:49.832Z,101011.78
2022-12-03T18:36:28.231Z,101003.31
2022-12-03T18:39:00.352Z,101014.53
2022-12-03T18:41:31.235Z,101011.78
2022-12-03T18:44:01.741Z,101003.19
2022-12-03T18:47:01.747Z,101001.88
2022-12-03T18:49:23.148Z,100990.34
2022-12-03T18:51:58.980Z,100994.22
2022-12-03T18:54:30.254Z,100987.56
2022-12-03T18:57:00.434Z,100976.88
2022-12-03T18:59:30.818Z,100980.94
2022-12-03T19:02:01.132Z,100973.16
2022-12-03T19:04:32.905Z,100965.50
2022-12-03T19:07:03.167Z,100967.47
2022-12-03T19:09:33.243Z,100954.78
2022-12-03T19:12:03.419Z,100953.16
2022-12-03T19:14:33.645Z,100950.72
2022-12-03T19:17:04.947Z,100949.56
2022-12-03T19:19:34.778Z,100950.72
2022-12-03T19:22:04.982Z,100953.97
2022-12-03T19:24:35.236Z,100944.97
2022-12-03T19:27:05.612Z,100942.75
2022-12-03T19:29:35.764Z,100947.47
2022-12-03T19:32:05.936Z,100934.78
2022-12-03T19:34:37.581Z,100930.59
2022-12-03T19:37:07.715Z,100934.78
2022-12-03T19:39:37.687Z,100930.06
2022-12-03T19:42:08.087Z,100922.09
2022-12-03T19:44:38.460Z,100922.09
2022-12-03T19:47:27.279Z,100923.75
2022-12-03T19:49:57.625Z,100924.38
2022-12-03T19:52:28.091Z,100925.47
2022-12-03T19:54:58.220Z,100919.66
2022-12-03T19:57:30.016Z,100924.38
2022-12-03T20:00:00.707Z,100928.25
2022-12-03T20:02:32.808Z,100920.47
2022-12-03T20:05:02.924Z,100923.84
2022-12-03T20:07:32.940Z,100919.16
2022-12-03T20:10:03.115Z,100921.94
2022-12-03T20:12:33.483Z,100919.47
2022-12-03T20:15:03.630Z,100922.41
2022-12-03T20:17:33.571Z,100921.09
2022-12-03T20:20:03.551Z,100915.59
2022-12-03T20:22:33.486Z,100911.69
2022-12-03T20:25:05.960Z,100921.09
2022-12-03T20:27:36.183Z,100921.94
2022-12-03T20:30:07.366Z,100917.53
2022-12-03T20:32:43.584Z,100926.59
2022-12-03T20:35:15.388Z,100931.00
2022-12-03T20:37:45.401Z,100921.09
2022-12-03T20:40:15.591Z,100920.28
2022-12-03T20:42:50.506Z,100917.22
2022-12-03T20:45:20.783Z,100912.81
2022-12-03T20:47:50.931Z,100927.44
2022-12-03T20:50:20.917Z,100926.59
2022-12-03T20:53:16.169Z,100931.63
2022-12-03T20:55:41.814Z,100936.34
2022-12-03T20:58:12.922Z,100941.34
2022-12-03T21:00:43.091Z,100933.56
2022-12-03T21:03:13.274Z,100944.28
2022-12-03T21:05:48.993Z,100946.84
2022-12-03T21:08:39.660Z,100944.09
2022-12-03T21:11:18.192Z,100946.03
2022-12-03T21:13:50.776Z,100944.09
2022-12-03T21:16:52.136Z,100950.22
2022-12-03T21:19:20.490Z,100960.94
2022-12-03T21:21:51.229Z,100953.31
2022-12-03T21:24:21.444Z,100958.50
2022-12-03T21:26:53.267Z,100958.50
2022-12-03T21:29:24.441Z,100956.88
2022-12-03T21:31:54.583Z,100959.34
2022-12-03T21:34:24.762Z,100960.75
2022-12-03T21:36:54.879Z,100959.63
2022-12-03T21:39:26.119Z,100954.44
2022-12-03T21:42:22.372Z,100954.22
2022-12-03T21:44:46.316Z,100963.31
2022-12-03T21:47:17.352Z,100965.25
2022-12-03T21:49:47.675Z,100965.56
2022-12-03T21:52:17.676Z,100962.19
2022-12-03T21:54:47.826Z,100966.59
2022-12-03T21:57:17.816Z,100955.06
2022-12-03T21:59:47.948Z,100963.31
2022-12-03T22:02:18.292Z,100966.41
2022-12-03T22:04:52.737Z,100970.47
2022-12-03T22:07:23.262Z,100973.22
2022-12-03T22:09:53.676Z,100975.47
2022-12-03T22:12:24.093Z,100969.34
2022-12-03T22:14:54.146Z,100973.53
2022-12-03T22:17:24.122Z,100976.28
2022-12-03T22:19:54.552Z,100975.97
2022-12-03T22:22:26.612Z,100990.38
2022-12-03T22:24:56.835Z,100990.38
2022-12-03T22:27:26.995Z,100986.81
2022-12-03T22:29:57.285Z,100986.59
2022-12-03T22:32:30.799Z,100991.00
2022-12-03T22:35:01.303Z,100995.09
2022-12-03T22:37:32.297Z,101000.28
2022-12-03T22:40:02.742Z,100996.72
2022-12-03T22:42:33.343Z,101003.38
2022-12-03T22:45:03.495Z,101016.50
2022-12-03T22:47:34.790Z,101011.00
2022-12-03T22:50:04.533Z,101011.81
2022-12-03T22:52:35.699Z,101006.31
2022-12-03T22:55:06.545Z,101002.72
2022-12-03T22:57:36.719Z,101007.94
2022-12-03T23:00:12.620Z,101014.59
2022-12-03T23:02:43.066Z,101013.47
2022-12-03T23:05:13.263Z,101017.34
2022-12-03T23:07:43.291Z,101024.78
2022-12-03T23:10:13.723Z,101025.63
2022-12-03T23:12:43.967Z,101028.88
2022-12-03T23:18:02.347Z,101044.59
2022-12-03T23:20:32.557Z,101053.19
2022-12-03T23:23:02.891Z,101050.63
2022-12-03T23:25:33.299Z,101059.81
2022-12-03T23:28:03.621Z,101061.47
2022-12-03T23:30:36.966Z,101064.81
2022-12-03T23:33:08.546Z,101067.69
2022-12-03T23:35:40.966Z,101072.06
2022-12-03T23:38:11.714Z,101056.78
2022-12-03T23:40:47.696Z,101063.41
2022-12-03T23:43:19.194Z,101059.31
2022-12-03T23:45:50.035Z,101073.31
2022-12-03T23:48:20.502Z,101061.16
2022-12-03T23:50:50.590Z,101065.56
2022-12-03T23:54:40.229Z,101061.25
2022-12-03T23:57:10.484Z,101074.16
2022-12-03T23:59:41.602Z,101068.81
